sensor_id;sensor_type;location;lat;lon;timestamp;P1;durP1;ratioP1;P2;durP2;ratioP2
11504;SDS011;5809;53.262;10.408;2022-10-22T00:00:04;27.48;;;20.80;;
11504;SDS011;5809;53.262;10.408;2022-10-22T00:02:32;31.98;;;23.10;;
11504;SDS011;5809;53.262;10.408;2022-10-22T00:05:00;27.42;;;21.05;;
11504;SDS011;5809;53.262;10.408;2022-10-22T00:07:27;28.35;;;21.45;;
11504;SDS011;5809;53.262;10.408;2022-10-22T00:09:54;40.00;;;23.30;;
11504;SDS011;5809;53.262;10.408;2022-10-22T00:12:21;30.55;;;20.50;;
11504;SDS011;5809;53.262;10.408;2022-10-22T00:14:48;32.08;;;21.08;;
11504;SDS011;5809;53.262;10.408;2022-10-22T00:17:15;33.90;;;23.15;;
11504;SDS011;5809;53.262;10.408;2022-10-22T00:19:42;29.42;;;21.55;;
11504;SDS011;5809;53.262;10.408;2022-10-22T00:22:10;28.52;;;21.70;;
11504;SDS011;5809;53.262;10.408;2022-10-22T00:24:37;32.88;;;21.75;;
11504;SDS011;5809;53.262;10.408;2022-10-22T00:27:06;30.67;;;22.45;;
11504;SDS011;5809;53.262;10.408;2022-10-22T00:29:34;29.77;;;22.20;;
11504;SDS011;5809;53.262;10.408;2022-10-22T00:32:02;31.88;;;22.13;;
11504;SDS011;5809;53.262;10.408;2022-10-22T00:34:29;27.10;;;21.10;;
11504;SDS011;5809;53.262;10.408;2022-10-22T00:36:56;28.08;;;20.58;;
11504;SDS011;5809;53.262;10.408;2022-10-22T00:39:25;31.52;;;20.10;;
11504;SDS011;5809;53.262;10.408;2022-10-22T00:41:54;26.25;;;19.45;;
11504;SDS011;5809;53.262;10.408;2022-10-22T00:47:29;29.25;;;19.17;;
11504;SDS011;5809;53.262;10.408;2022-10-22T00:49:58;23.30;;;17.98;;
11504;SDS011;5809;53.262;10.408;2022-10-22T00:52:26;24.75;;;19.63;;
11504;SDS011;5809;53.262;10.408;2022-10-22T00:54:55;25.63;;;19.42;;
11504;SDS011;5809;53.262;10.408;2022-10-22T00:57:23;26.58;;;19.42;;
11504;SDS011;5809;53.262;10.408;2022-10-22T00:59:50;27.50;;;19.33;;
11504;SDS011;5809;53.262;10.408;2022-10-22T01:02:17;25.90;;;18.00;;
11504;SDS011;5809;53.262;10.408;2022-10-22T01:04:44;23.92;;;18.30;;
11504;SDS011;5809;53.262;10.408;2022-10-22T01:07:12;22.70;;;17.25;;
11504;SDS011;5809;53.262;10.408;2022-10-22T01:09:44;23.23;;;16.77;;
11504;SDS011;5809;53.262;10.408;2022-10-22T01:12:17;23.48;;;17.48;;
11504;SDS011;5809;53.262;10.408;2022-10-22T01:14:51;26.25;;;17.25;;
11504;SDS011;5809;53.262;10.408;2022-10-22T01:17:38;23.48;;;17.02;;
11504;SDS011;5809;53.262;10.408;2022-10-22T01:20:14;20.98;;;15.95;;
11504;SDS011;5809;53.262;10.408;2022-10-22T01:22:58;24.02;;;16.20;;
11504;SDS011;5809;53.262;10.408;2022-10-22T01:25:40;19.55;;;15.15;;
11504;SDS011;5809;53.262;10.408;2022-10-22T01:28:16;22.63;;;16.15;;
11504;SDS011;5809;53.262;10.408;2022-10-22T01:30:49;21.50;;;15.77;;
11504;SDS011;5809;53.262;10.408;2022-10-22T01:33:18;18.33;;;14.57;;
11504;SDS011;5809;53.262;10.408;2022-10-22T01:35:47;19.10;;;15.13;;
11504;SDS011;5809;53.262;10.408;2022-10-22T01:38:16;20.85;;;15.00;;
11504;SDS011;5809;53.262;10.408;2022-10-22T01:40:46;19.70;;;14.48;;
11504;SDS011;5809;53.262;10.408;2022-10-22T01:43:14;20.15;;;15.15;;
11504;SDS011;5809;53.262;10.408;2022-10-22T01:45:42;20.48;;;15.52;;
11504;SDS011;5809;53.262;10.408;2022-10-22T01:48:18;23.15;;;15.65;;
11504;SDS011;5809;53.262;10.408;2022-10-22T01:50:59;23.42;;;15.52;;
11504;SDS011;5809;53.262;10.408;2022-10-22T01:53:40;19.00;;;15.50;;
11504;SDS011;5809;53.262;10.408;2022-10-22T01:56:17;20.08;;;16.17;;
11504;SDS011;5809;53.262;10.408;2022-10-22T01:58:54;22.73;;;15.73;;
11504;SDS011;5809;53.262;10.408;2022-10-22T02:01:30;23.40;;;16.17;;
11504;SDS011;5809;53.262;10.408;2022-10-22T02:04:09;22.65;;;15.85;;
11504;SDS011;5809;53.262;10.408;2022-10-22T02:06:40;20.30;;;15.98;;
11504;SDS011;5809;53.262;10.408;2022-10-22T02:09:10;23.30;;;15.95;;
11504;SDS011;5809;53.262;10.408;2022-10-22T02:11:40;23.52;;;17.30;;
11504;SDS011;5809;53.262;10.408;2022-10-22T02:14:09;21.17;;;16.40;;
11504;SDS011;5809;53.262;10.408;2022-10-22T02:16:38;22.67;;;16.48;;
11504;SDS011;5809;53.262;10.408;2022-10-22T02:19:10;27.83;;;17.65;;
11504;SDS011;5809;53.262;10.408;2022-10-22T02:21:41;20.23;;;16.02;;
11504;SDS011;5809;53.262;10.408;2022-10-22T02:24:08;23.13;;;17.75;;
11504;SDS011;5809;53.262;10.408;2022-10-22T02:26:38;23.90;;;17.30;;
11504;SDS011;5809;53.262;10.408;2022-10-22T02:29:10;23.48;;;17.85;;
11504;SDS011;5809;53.262;10.408;2022-10-22T02:31:40;25.65;;;17.77;;
11504;SDS011;5809;53.262;10.408;2022-10-22T02:34:13;28.20;;;18.30;;
11504;SDS011;5809;53.262;10.408;2022-10-22T02:36:43;24.85;;;17.08;;
11504;SDS011;5809;53.262;10.408;2022-10-22T02:39:11;27.08;;;17.92;;
11504;SDS011;5809;53.262;10.408;2022-10-22T02:41:39;26.77;;;17.33;;
11504;SDS011;5809;53.262;10.408;2022-10-22T02:44:07;18.23;;;16.25;;
11504;SDS011;5809;53.262;10.408;2022-10-22T02:46:35;29.80;;;18.63;;
11504;SDS011;5809;53.262;10.408;2022-10-22T02:49:03;27.33;;;18.20;;
11504;SDS011;5809;53.262;10.408;2022-10-22T02:51:31;24.00;;;17.45;;
11504;SDS011;5809;53.262;10.408;2022-10-22T02:53:59;21.88;;;17.70;;
11504;SDS011;5809;53.262;10.408;2022-10-22T02:56:25;23.05;;;17.58;;
11504;SDS011;5809;53.262;10.408;2022-10-22T02:58:53;27.00;;;18.00;;
11504;SDS011;5809;53.262;10.408;2022-10-22T03:01:20;28.23;;;18.08;;
11504;SDS011;5809;53.262;10.408;2022-10-22T03:03:47;25.85;;;18.00;;
11504;SDS011;5809;53.262;10.408;2022-10-22T03:06:14;24.40;;;18.08;;
11504;SDS011;5809;53.262;10.408;2022-10-22T03:08:43;21.75;;;17.02;;
11504;SDS011;5809;53.262;10.408;2022-10-22T03:11:10;25.52;;;17.35;;
11504;SDS011;5809;53.262;10.408;2022-10-22T03:13:36;22.58;;;17.60;;
11504;SDS011;5809;53.262;10.408;2022-10-22T03:16:03;27.27;;;17.83;;
11504;SDS011;5809;53.262;10.408;2022-10-22T03:18:31;20.88;;;17.02;;
11504;SDS011;5809;53.262;10.408;2022-10-22T03:20:59;30.00;;;17.98;;
11504;SDS011;5809;53.262;10.408;2022-10-22T03:23:31;28.10;;;17.08;;
11504;SDS011;5809;53.262;10.408;2022-10-22T03:26:00;26.67;;;17.52;;
11504;SDS011;5809;53.262;10.408;2022-10-22T03:28:27;26.88;;;19.08;;
11504;SDS011;5809;53.262;10.408;2022-10-22T03:30:54;26.02;;;18.80;;
11504;SDS011;5809;53.262;10.408;2022-10-22T03:33:21;28.40;;;19.38;;
11504;SDS011;5809;53.262;10.408;2022-10-22T03:35:48;29.60;;;20.58;;
11504;SDS011;5809;53.262;10.408;2022-10-22T03:38:15;32.08;;;19.55;;
11504;SDS011;5809;53.262;10.408;2022-10-22T03:40:42;30.23;;;20.40;;
11504;SDS011;5809;53.262;10.408;2022-10-22T03:43:11;31.73;;;19.75;;
11504;SDS011;5809;53.262;10.408;2022-10-22T03:45:38;29.23;;;19.63;;
11504;SDS011;5809;53.262;10.408;2022-10-22T03:48:05;25.10;;;18.80;;
11504;SDS011;5809;53.262;10.408;2022-10-22T03:50:32;23.67;;;17.45;;
11504;SDS011;5809;53.262;10.408;2022-10-22T03:52:59;33.58;;;19.63;;
11504;SDS011;5809;53.262;10.408;2022-10-22T03:55:25;28.52;;;19.02;;
11504;SDS011;5809;53.262;10.408;2022-10-22T03:57:52;28.42;;;19.13;;
11504;SDS011;5809;53.262;10.408;2022-10-22T04:00:21;34.45;;;20.13;;
11504;SDS011;5809;53.262;10.408;2022-10-22T04:02:48;30.90;;;19.77;;
11504;SDS011;5809;53.262;10.408;2022-10-22T04:05:14;33.10;;;21.75;;
11504;SDS011;5809;53.262;10.408;2022-10-22T04:07:42;34.35;;;22.40;;
11504;SDS011;5809;53.262;10.408;2022-10-22T04:10:08;37.25;;;24.00;;
11504;SDS011;5809;53.262;10.408;2022-10-22T04:12:35;35.22;;;22.42;;
11504;SDS011;5809;53.262;10.408;2022-10-22T04:15:03;34.40;;;23.50;;
11504;SDS011;5809;53.262;10.408;2022-10-22T04:17:33;39.67;;;23.02;;
11504;SDS011;5809;53.262;10.408;2022-10-22T04:20:00;35.22;;;22.40;;
11504;SDS011;5809;53.262;10.408;2022-10-22T04:22:27;32.38;;;22.13;;
11504;SDS011;5809;53.262;10.408;2022-10-22T04:24:54;30.05;;;20.92;;
11504;SDS011;5809;53.262;10.408;2022-10-22T04:27:21;30.48;;;20.40;;
11504;SDS011;5809;53.262;10.408;2022-10-22T04:29:49;31.80;;;21.27;;
11504;SDS011;5809;53.262;10.408;2022-10-22T04:32:15;30.90;;;20.48;;
11504;SDS011;5809;53.262;10.408;2022-10-22T04:34:44;27.52;;;19.98;;
11504;SDS011;5809;53.262;10.408;2022-10-22T04:37:11;27.88;;;19.42;;
11504;SDS011;5809;53.262;10.408;2022-10-22T04:39:40;29.70;;;19.25;;
11504;SDS011;5809;53.262;10.408;2022-10-22T04:42:06;28.45;;;19.55;;
11504;SDS011;5809;53.262;10.408;2022-10-22T04:44:33;33.50;;;21.65;;
11504;SDS011;5809;53.262;10.408;2022-10-22T04:47:00;40.03;;;22.75;;
11504;SDS011;5809;53.262;10.408;2022-10-22T04:49:27;45.63;;;25.45;;
11504;SDS011;5809;53.262;10.408;2022-10-22T04:51:55;51.60;;;26.92;;
11504;SDS011;5809;53.262;10.408;2022-10-22T04:54:22;37.42;;;23.10;;
11504;SDS011;5809;53.262;10.408;2022-10-22T04:56:49;36.15;;;23.65;;
11504;SDS011;5809;53.262;10.408;2022-10-22T04:59:16;37.33;;;23.67;;
11504;SDS011;5809;53.262;10.408;2022-10-22T05:01:43;34.92;;;21.08;;
11504;SDS011;5809;53.262;10.408;2022-10-22T05:04:11;31.15;;;21.48;;
11504;SDS011;5809;53.262;10.408;2022-10-22T05:06:39;31.30;;;21.08;;
11504;SDS011;5809;53.262;10.408;2022-10-22T05:09:09;31.67;;;20.23;;
11504;SDS011;5809;53.262;10.408;2022-10-22T05:11:40;32.85;;;20.30;;
11504;SDS011;5809;53.262;10.408;2022-10-22T05:14:09;27.92;;;19.70;;
11504;SDS011;5809;53.262;10.408;2022-10-22T05:16:37;36.75;;;21.35;;
11504;SDS011;5809;53.262;10.408;2022-10-22T05:19:04;26.70;;;19.20;;
11504;SDS011;5809;53.262;10.408;2022-10-22T05:21:32;29.42;;;20.85;;
11504;SDS011;5809;53.262;10.408;2022-10-22T05:24:00;30.13;;;19.38;;
11504;SDS011;5809;53.262;10.408;2022-10-22T05:26:29;32.80;;;19.88;;
11504;SDS011;5809;53.262;10.408;2022-10-22T05:28:56;36.20;;;21.52;;
11504;SDS011;5809;53.262;10.408;2022-10-22T05:31:23;30.77;;;19.80;;
11504;SDS011;5809;53.262;10.408;2022-10-22T05:33:52;35.70;;;20.20;;
11504;SDS011;5809;53.262;10.408;2022-10-22T05:36:20;37.10;;;21.80;;
11504;SDS011;5809;53.262;10.408;2022-10-22T05:38:48;28.10;;;19.90;;
11504;SDS011;5809;53.262;10.408;2022-10-22T05:41:16;34.58;;;21.52;;
11504;SDS011;5809;53.262;10.408;2022-10-22T05:43:45;31.23;;;19.60;;
11504;SDS011;5809;53.262;10.408;2022-10-22T05:46:13;33.13;;;20.20;;
11504;SDS011;5809;53.262;10.408;2022-10-22T05:48:41;31.13;;;19.77;;
11504;SDS011;5809;53.262;10.408;2022-10-22T05:51:09;26.10;;;18.85;;
11504;SDS011;5809;53.262;10.408;2022-10-22T05:53:39;29.35;;;19.08;;
11504;SDS011;5809;53.262;10.408;2022-10-22T05:56:09;30.10;;;19.50;;
11504;SDS011;5809;53.262;10.408;2022-10-22T05:58:37;30.73;;;20.20;;
11504;SDS011;5809;53.262;10.408;2022-10-22T06:01:06;37.45;;;21.88;;
11504;SDS011;5809;53.262;10.408;2022-10-22T06:03:36;32.20;;;22.08;;
11504;SDS011;5809;53.262;10.408;2022-10-22T06:06:05;38.95;;;23.08;;
11504;SDS011;5809;53.262;10.408;2022-10-22T06:08:39;37.38;;;21.92;;
11504;SDS011;5809;53.262;10.408;2022-10-22T06:11:06;38.90;;;22.75;;
11504;SDS011;5809;53.262;10.408;2022-10-22T06:13:34;39.35;;;23.67;;
11504;SDS011;5809;53.262;10.408;2022-10-22T06:16:00;41.95;;;23.92;;
11504;SDS011;5809;53.262;10.408;2022-10-22T06:18:29;43.90;;;25.58;;
11504;SDS011;5809;53.262;10.408;2022-10-22T06:20:56;38.47;;;25.33;;
11504;SDS011;5809;53.262;10.408;2022-10-22T06:23:29;45.95;;;26.38;;
11504;SDS011;5809;53.262;10.408;2022-10-22T06:25:56;45.10;;;26.90;;
11504;SDS011;5809;53.262;10.408;2022-10-22T06:28:23;44.83;;;25.52;;
11504;SDS011;5809;53.262;10.408;2022-10-22T06:30:51;35.15;;;24.27;;
11504;SDS011;5809;53.262;10.408;2022-10-22T06:33:18;32.15;;;23.58;;
11504;SDS011;5809;53.262;10.408;2022-10-22T06:35:46;38.72;;;23.85;;
11504;SDS011;5809;53.262;10.408;2022-10-22T06:38:13;34.22;;;23.25;;
11504;SDS011;5809;53.262;10.408;2022-10-22T06:40:40;34.25;;;22.25;;
11504;SDS011;5809;53.262;10.408;2022-10-22T06:43:09;37.55;;;23.50;;
11504;SDS011;5809;53.262;10.408;2022-10-22T06:45:36;38.65;;;23.90;;
11504;SDS011;5809;53.262;10.408;2022-10-22T06:48:03;33.85;;;22.25;;
11504;SDS011;5809;53.262;10.408;2022-10-22T06:50:30;31.05;;;21.27;;
11504;SDS011;5809;53.262;10.408;2022-10-22T06:53:00;30.10;;;20.58;;
11504;SDS011;5809;53.262;10.408;2022-10-22T06:55:27;30.42;;;19.75;;
11504;SDS011;5809;53.262;10.408;2022-10-22T06:57:54;36.28;;;20.63;;
11504;SDS011;5809;53.262;10.408;2022-10-22T07:00:21;33.42;;;20.42;;
11504;SDS011;5809;53.262;10.408;2022-10-22T07:02:51;29.15;;;19.88;;
11504;SDS011;5809;53.262;10.408;2022-10-22T07:05:18;31.02;;;20.95;;
11504;SDS011;5809;53.262;10.408;2022-10-22T07:07:45;35.65;;;21.13;;
11504;SDS011;5809;53.262;10.408;2022-10-22T07:10:14;27.30;;;20.40;;
11504;SDS011;5809;53.262;10.408;2022-10-22T07:12:41;29.35;;;20.20;;
11504;SDS011;5809;53.262;10.408;2022-10-22T07:15:08;29.10;;;19.58;;
11504;SDS011;5809;53.262;10.408;2022-10-22T07:17:35;30.05;;;19.83;;
11504;SDS011;5809;53.262;10.408;2022-10-22T07:20:03;33.03;;;21.92;;
11504;SDS011;5809;53.262;10.408;2022-10-22T07:22:31;32.53;;;23.85;;
11504;SDS011;5809;53.262;10.408;2022-10-22T07:24:58;29.15;;;21.70;;
11504;SDS011;5809;53.262;10.408;2022-10-22T07:27:26;40.22;;;27.30;;
11504;SDS011;5809;53.262;10.408;2022-10-22T07:29:53;43.50;;;28.33;;
11504;SDS011;5809;53.262;10.408;2022-10-22T07:32:20;34.03;;;23.10;;
11504;SDS011;5809;53.262;10.408;2022-10-22T07:34:47;32.45;;;22.02;;
11504;SDS011;5809;53.262;10.408;2022-10-22T07:37:14;33.20;;;21.35;;
11504;SDS011;5809;53.262;10.408;2022-10-22T07:39:41;31.85;;;21.38;;
11504;SDS011;5809;53.262;10.408;2022-10-22T07:42:10;26.77;;;21.00;;
11504;SDS011;5809;53.262;10.408;2022-10-22T07:44:38;26.70;;;19.70;;
11504;SDS011;5809;53.262;10.408;2022-10-22T07:47:05;17.77;;;14.85;;
11504;SDS011;5809;53.262;10.408;2022-10-22T07:49:32;16.55;;;13.05;;
11504;SDS011;5809;53.262;10.408;2022-10-22T07:51:59;13.95;;;11.63;;
11504;SDS011;5809;53.262;10.408;2022-10-22T07:54:26;12.32;;;9.68;;
11504;SDS011;5809;53.262;10.408;2022-10-22T07:56:53;10.57;;;9.18;;
11504;SDS011;5809;53.262;10.408;2022-10-22T07:59:20;11.27;;;8.00;;
11504;SDS011;5809;53.262;10.408;2022-10-22T08:01:48;11.13;;;8.00;;
11504;SDS011;5809;53.262;10.408;2022-10-22T08:04:15;8.43;;;7.45;;
11504;SDS011;5809;53.262;10.408;2022-10-22T08:06:41;9.75;;;7.47;;
11504;SDS011;5809;53.262;10.408;2022-10-22T08:09:08;9.55;;;7.20;;
11504;SDS011;5809;53.262;10.408;2022-10-22T08:11:35;7.85;;;7.15;;
11504;SDS011;5809;53.262;10.408;2022-10-22T08:14:03;8.25;;;6.45;;
11504;SDS011;5809;53.262;10.408;2022-10-22T08:16:30;7.07;;;6.38;;
11504;SDS011;5809;53.262;10.408;2022-10-22T08:18:58;10.27;;;6.15;;
11504;SDS011;5809;53.262;10.408;2022-10-22T08:21:25;9.90;;;6.35;;
11504;SDS011;5809;53.262;10.408;2022-10-22T08:23:52;6.93;;;6.28;;
11504;SDS011;5809;53.262;10.408;2022-10-22T08:26:19;8.13;;;6.25;;
11504;SDS011;5809;53.262;10.408;2022-10-22T08:28:45;6.57;;;5.95;;
11504;SDS011;5809;53.262;10.408;2022-10-22T08:31:12;9.55;;;6.32;;
11504;SDS011;5809;53.262;10.408;2022-10-22T08:33:39;9.95;;;5.95;;
11504;SDS011;5809;53.262;10.408;2022-10-22T08:36:08;9.77;;;5.60;;
11504;SDS011;5809;53.262;10.408;2022-10-22T08:38:35;8.40;;;5.93;;
11504;SDS011;5809;53.262;10.408;2022-10-22T08:41:05;8.98;;;5.78;;
11504;SDS011;5809;53.262;10.408;2022-10-22T08:43:37;7.68;;;5.35;;
11504;SDS011;5809;53.262;10.408;2022-10-22T08:46:17;5.88;;;5.00;;
11504;SDS011;5809;53.262;10.408;2022-10-22T08:48:53;6.00;;;4.80;;
11504;SDS011;5809;53.262;10.408;2022-10-22T08:51:25;8.82;;;4.90;;
11504;SDS011;5809;53.262;10.408;2022-10-22T08:56:49;6.35;;;4.97;;
11504;SDS011;5809;53.262;10.408;2022-10-22T08:59:31;5.15;;;4.65;;
11504;SDS011;5809;53.262;10.408;2022-10-22T09:02:11;7.38;;;4.60;;
11504;SDS011;5809;53.262;10.408;2022-10-22T09:04:45;7.43;;;4.50;;
11504;SDS011;5809;53.262;10.408;2022-10-22T09:07:22;6.50;;;4.50;;
11504;SDS011;5809;53.262;10.408;2022-10-22T09:09:49;8.00;;;4.55;;
11504;SDS011;5809;53.262;10.408;2022-10-22T09:12:19;7.38;;;4.20;;
11504;SDS011;5809;53.262;10.408;2022-10-22T09:14:49;5.93;;;4.28;;
11504;SDS011;5809;53.262;10.408;2022-10-22T09:17:19;5.28;;;4.13;;
11504;SDS011;5809;53.262;10.408;2022-10-22T09:19:54;5.63;;;3.58;;
11504;SDS011;5809;53.262;10.408;2022-10-22T09:22:29;5.22;;;3.45;;
11504;SDS011;5809;53.262;10.408;2022-10-22T09:25:13;6.25;;;3.40;;
11504;SDS011;5809;53.262;10.408;2022-10-22T09:27:45;7.53;;;3.53;;
11504;SDS011;5809;53.262;10.408;2022-10-22T09:30:13;9.38;;;3.60;;
11504;SDS011;5809;53.262;10.408;2022-10-22T09:32:42;9.60;;;3.80;;
11504;SDS011;5809;53.262;10.408;2022-10-22T09:35:09;6.10;;;3.38;;
11504;SDS011;5809;53.262;10.408;2022-10-22T09:37:43;6.32;;;3.22;;
11504;SDS011;5809;53.262;10.408;2022-10-22T09:40:13;5.60;;;3.28;;
11504;SDS011;5809;53.262;10.408;2022-10-22T09:42:40;5.20;;;2.60;;
11504;SDS011;5809;53.262;10.408;2022-10-22T09:45:13;9.07;;;3.10;;
11504;SDS011;5809;53.262;10.408;2022-10-22T09:47:43;5.63;;;3.20;;
11504;SDS011;5809;53.262;10.408;2022-10-22T09:50:16;5.32;;;2.90;;
11504;SDS011;5809;53.262;10.408;2022-10-22T09:52:54;7.05;;;3.35;;
11504;SDS011;5809;53.262;10.408;2022-10-22T09:55:24;7.38;;;3.25;;
11504;SDS011;5809;53.262;10.408;2022-10-22T09:57:52;5.93;;;2.70;;
11504;SDS011;5809;53.262;10.408;2022-10-22T10:00:20;3.95;;;2.60;;
11504;SDS011;5809;53.262;10.408;2022-10-22T10:02:52;8.10;;;2.97;;
11504;SDS011;5809;53.262;10.408;2022-10-22T10:05:25;5.10;;;2.95;;
11504;SDS011;5809;53.262;10.408;2022-10-22T10:07:54;6.40;;;2.70;;
11504;SDS011;5809;53.262;10.408;2022-10-22T10:10:26;6.45;;;3.30;;
11504;SDS011;5809;53.262;10.408;2022-10-22T10:13:01;6.50;;;2.72;;
11504;SDS011;5809;53.262;10.408;2022-10-22T10:15:43;7.25;;;3.25;;
11504;SDS011;5809;53.262;10.408;2022-10-22T10:18:21;5.55;;;2.70;;
11504;SDS011;5809;53.262;10.408;2022-10-22T10:20:59;6.60;;;2.55;;
11504;SDS011;5809;53.262;10.408;2022-10-22T10:23:38;6.35;;;2.80;;
11504;SDS011;5809;53.262;10.408;2022-10-22T10:26:12;5.05;;;2.72;;
11504;SDS011;5809;53.262;10.408;2022-10-22T10:28:47;4.53;;;2.30;;
11504;SDS011;5809;53.262;10.408;2022-10-22T10:31:27;4.70;;;2.63;;
11504;SDS011;5809;53.262;10.408;2022-10-22T10:34:03;6.00;;;2.47;;
11504;SDS011;5809;53.262;10.408;2022-10-22T10:36:44;3.70;;;2.50;;
11504;SDS011;5809;53.262;10.408;2022-10-22T10:39:22;6.88;;;2.38;;
11504;SDS011;5809;53.262;10.408;2022-10-22T10:41:57;5.93;;;2.25;;
11504;SDS011;5809;53.262;10.408;2022-10-22T10:44:36;6.53;;;2.45;;
11504;SDS011;5809;53.262;10.408;2022-10-22T10:47:16;6.45;;;2.22;;
11504;SDS011;5809;53.262;10.408;2022-10-22T10:50:11;6.28;;;1.92;;
11504;SDS011;5809;53.262;10.408;2022-10-22T10:52:44;6.10;;;2.22;;
11504;SDS011;5809;53.262;10.408;2022-10-22T10:55:18;2.88;;;1.90;;
11504;SDS011;5809;53.262;10.408;2022-10-22T10:57:54;2.80;;;1.90;;
11504;SDS011;5809;53.262;10.408;2022-10-22T11:00:26;6.78;;;1.90;;
11504;SDS011;5809;53.262;10.408;2022-10-22T11:06:06;6.28;;;2.20;;
11504;SDS011;5809;53.262;10.408;2022-10-22T11:08:37;5.97;;;2.13;;
11504;SDS011;5809;53.262;10.408;2022-10-22T11:11:11;6.13;;;2.08;;
11504;SDS011;5809;53.262;10.408;2022-10-22T11:13:42;4.72;;;1.90;;
11504;SDS011;5809;53.262;10.408;2022-10-22T11:16:15;2.65;;;1.88;;
11504;SDS011;5809;53.262;10.408;2022-10-22T11:18:47;6.05;;;2.13;;
11504;SDS011;5809;53.262;10.408;2022-10-22T11:21:21;4.32;;;1.92;;
11504;SDS011;5809;53.262;10.408;2022-10-22T11:23:54;6.07;;;1.80;;
11504;SDS011;5809;53.262;10.408;2022-10-22T11:26:33;5.05;;;2.13;;
11504;SDS011;5809;53.262;10.408;2022-10-22T11:29:04;3.17;;;1.92;;
11504;SDS011;5809;53.262;10.408;2022-10-22T11:31:36;5.13;;;2.00;;
11504;SDS011;5809;53.262;10.408;2022-10-22T11:34:05;4.53;;;1.90;;
11504;SDS011;5809;53.262;10.408;2022-10-22T11:36:40;7.35;;;2.63;;
11504;SDS011;5809;53.262;10.408;2022-10-22T11:42:02;4.13;;;1.88;;
11504;SDS011;5809;53.262;10.408;2022-10-22T11:44:30;7.20;;;2.20;;
11504;SDS011;5809;53.262;10.408;2022-10-22T11:47:14;6.45;;;1.77;;
11504;SDS011;5809;53.262;10.408;2022-10-22T11:49:45;7.15;;;2.28;;
11504;SDS011;5809;53.262;10.408;2022-10-22T11:52:22;3.78;;;1.83;;
11504;SDS011;5809;53.262;10.408;2022-10-22T11:54:52;3.63;;;1.88;;
11504;SDS011;5809;53.262;10.408;2022-10-22T11:57:26;4.20;;;1.90;;
11504;SDS011;5809;53.262;10.408;2022-10-22T11:59:57;6.53;;;2.00;;
11504;SDS011;5809;53.262;10.408;2022-10-22T12:05:17;5.53;;;2.10;;
11504;SDS011;5809;53.262;10.408;2022-10-22T12:07:58;6.93;;;2.15;;
11504;SDS011;5809;53.262;10.408;2022-10-22T12:10:29;4.32;;;1.77;;
11504;SDS011;5809;53.262;10.408;2022-10-22T12:13:03;4.30;;;2.00;;
11504;SDS011;5809;53.262;10.408;2022-10-22T12:15:45;4.60;;;1.88;;
11504;SDS011;5809;53.262;10.408;2022-10-22T12:18:14;6.30;;;2.10;;
11504;SDS011;5809;53.262;10.408;2022-10-22T12:20:41;5.95;;;2.05;;
11504;SDS011;5809;53.262;10.408;2022-10-22T12:23:08;4.82;;;2.00;;
11504;SDS011;5809;53.262;10.408;2022-10-22T12:25:37;5.38;;;2.30;;
11504;SDS011;5809;53.262;10.408;2022-10-22T12:28:08;7.30;;;2.40;;
11504;SDS011;5809;53.262;10.408;2022-10-22T12:30:37;4.20;;;1.83;;
11504;SDS011;5809;53.262;10.408;2022-10-22T12:33:06;4.47;;;1.92;;
11504;SDS011;5809;53.262;10.408;2022-10-22T12:35:43;6.97;;;2.03;;
11504;SDS011;5809;53.262;10.408;2022-10-22T12:38:11;6.40;;;2.35;;
11504;SDS011;5809;53.262;10.408;2022-10-22T12:40:40;5.78;;;2.22;;
11504;SDS011;5809;53.262;10.408;2022-10-22T12:43:11;5.60;;;2.22;;
11504;SDS011;5809;53.262;10.408;2022-10-22T12:45:40;6.15;;;2.50;;
11504;SDS011;5809;53.262;10.408;2022-10-22T12:48:13;5.70;;;2.33;;
11504;SDS011;5809;53.262;10.408;2022-10-22T12:50:43;8.80;;;2.63;;
11504;SDS011;5809;53.262;10.408;2022-10-22T12:53:14;5.95;;;2.35;;
11504;SDS011;5809;53.262;10.408;2022-10-22T12:55:44;4.72;;;2.25;;
11504;SDS011;5809;53.262;10.408;2022-10-22T12:58:16;8.13;;;2.53;;
11504;SDS011;5809;53.262;10.408;2022-10-22T13:00:44;4.60;;;2.47;;
11504;SDS011;5809;53.262;10.408;2022-10-22T13:03:25;6.68;;;2.42;;
11504;SDS011;5809;53.262;10.408;2022-10-22T13:05:54;7.53;;;2.50;;
11504;SDS011;5809;53.262;10.408;2022-10-22T13:08:22;5.28;;;2.45;;
11504;SDS011;5809;53.262;10.408;2022-10-22T13:10:53;4.60;;;2.70;;
11504;SDS011;5809;53.262;10.408;2022-10-22T13:13:40;6.53;;;2.58;;
11504;SDS011;5809;53.262;10.408;2022-10-22T13:16:13;4.53;;;2.30;;
11504;SDS011;5809;53.262;10.408;2022-10-22T13:18:42;10.18;;;2.97;;
11504;SDS011;5809;53.262;10.408;2022-10-22T13:21:19;4.88;;;2.20;;
11504;SDS011;5809;53.262;10.408;2022-10-22T13:23:51;8.77;;;2.33;;
11504;SDS011;5809;53.262;10.408;2022-10-22T13:26:19;7.75;;;2.60;;
11504;SDS011;5809;53.262;10.408;2022-10-22T13:28:52;6.63;;;2.53;;
11504;SDS011;5809;53.262;10.408;2022-10-22T13:31:22;8.02;;;2.35;;
11504;SDS011;5809;53.262;10.408;2022-10-22T13:33:51;5.35;;;2.22;;
11504;SDS011;5809;53.262;10.408;2022-10-22T13:36:21;6.43;;;2.30;;
11504;SDS011;5809;53.262;10.408;2022-10-22T13:38:49;7.57;;;2.50;;
11504;SDS011;5809;53.262;10.408;2022-10-22T13:41:20;10.70;;;2.33;;
11504;SDS011;5809;53.262;10.408;2022-10-22T13:43:48;8.07;;;2.45;;
11504;SDS011;5809;53.262;10.408;2022-10-22T13:46:17;5.07;;;2.17;;
11504;SDS011;5809;53.262;10.408;2022-10-22T13:48:46;5.65;;;2.40;;
11504;SDS011;5809;53.262;10.408;2022-10-22T13:51:17;9.82;;;2.75;;
11504;SDS011;5809;53.262;10.408;2022-10-22T13:53:45;4.97;;;2.15;;
11504;SDS011;5809;53.262;10.408;2022-10-22T13:56:13;3.88;;;2.10;;
11504;SDS011;5809;53.262;10.408;2022-10-22T13:58:41;7.50;;;2.33;;
11504;SDS011;5809;53.262;10.408;2022-10-22T14:01:13;6.85;;;2.40;;
11504;SDS011;5809;53.262;10.408;2022-10-22T14:03:45;7.03;;;2.53;;
11504;SDS011;5809;53.262;10.408;2022-10-22T14:06:14;8.43;;;2.40;;
11504;SDS011;5809;53.262;10.408;2022-10-22T14:08:42;8.18;;;2.83;;
11504;SDS011;5809;53.262;10.408;2022-10-22T14:11:12;5.85;;;2.55;;
11504;SDS011;5809;53.262;10.408;2022-10-22T14:13:39;6.03;;;2.13;;
11504;SDS011;5809;53.262;10.408;2022-10-22T14:16:06;8.73;;;2.33;;
11504;SDS011;5809;53.262;10.408;2022-10-22T14:18:43;7.15;;;2.17;;
11504;SDS011;5809;53.262;10.408;2022-10-22T14:21:10;6.15;;;2.63;;
11504;SDS011;5809;53.262;10.408;2022-10-22T14:23:39;5.45;;;2.20;;
11504;SDS011;5809;53.262;10.408;2022-10-22T14:26:08;7.63;;;2.40;;
11504;SDS011;5809;53.262;10.408;2022-10-22T14:28:43;4.50;;;2.35;;
11504;SDS011;5809;53.262;10.408;2022-10-22T14:31:10;5.53;;;2.10;;
11504;SDS011;5809;53.262;10.408;2022-10-22T14:33:38;6.35;;;2.15;;
11504;SDS011;5809;53.262;10.408;2022-10-22T14:36:05;8.15;;;2.60;;
11504;SDS011;5809;53.262;10.408;2022-10-22T14:38:34;7.75;;;2.33;;
11504;SDS011;5809;53.262;10.408;2022-10-22T14:41:01;7.85;;;2.20;;
11504;SDS011;5809;53.262;10.408;2022-10-22T14:43:28;6.10;;;2.17;;
11504;SDS011;5809;53.262;10.408;2022-10-22T14:45:56;6.07;;;2.00;;
11504;SDS011;5809;53.262;10.408;2022-10-22T14:48:23;6.57;;;2.20;;
11504;SDS011;5809;53.262;10.408;2022-10-22T14:50:51;7.68;;;2.17;;
11504;SDS011;5809;53.262;10.408;2022-10-22T14:53:20;8.02;;;2.25;;
11504;SDS011;5809;53.262;10.408;2022-10-22T14:55:47;6.93;;;2.40;;
11504;SDS011;5809;53.262;10.408;2022-10-22T14:58:15;7.30;;;2.30;;
11504;SDS011;5809;53.262;10.408;2022-10-22T15:00:42;7.18;;;2.60;;
11504;SDS011;5809;53.262;10.408;2022-10-22T15:03:10;6.03;;;2.10;;